Pine Knoll Shores, North Carolina
Current Conditions -  °F | °C
As of 9:58 PM on Sunday 21 Dec 2014 (Local Time) from KMRH Reporting Station
Light Rain Light Rain  
Wind Chill: 38°   Ceiling: 4700
Heat Index: 44°   Visibility: 8mi
Dew Point: 42°   Wind: 12mph
Humidity: 93%   Direction: 40°NE
Pressure: 30.2"   Gusts: 21mph
Location:  34.6984°N, 76.7775°W
Report Text: KMRH 220258Z AUTO 04010G18KT 8SM -RA FEW030 BKN047 OVC060 07/06 A3020 RMK AO2 RAB06 SLP225 P0001 60001 I1000 I3/// T00670056 58009 TSNO
Loading
Personal Weather Stations






























Interactive Weather Map New forecast layout! Learn more

10-Day Weather Forecast

Advertisements
Track Severe Weather on mobile